Dundee, Texas
Current Conditions -  °F | °C
As of 1:55 PM on Thursday 30 Oct 2014 (Local Time) from KCWC Reporting Station
Broken Clouds Broken Clouds  
Wind Chill: 24°   Ceiling: 9000
Heat Index: 24°   Visibility: 10mi
Dew Point: 13°   Wind: 9mph
Humidity: 50%   Direction: 270°W
Pressure: 30.12"   Gusts: NA
Location:  33.6107°N, 98.6955°W
Report Text: KCWC 301855Z AUTO 27008KT 10SM SCT050 SCT055 BKN090 24/13 A3012 RMK AO2 T02430134
Loading
Personal Weather Stations






























Interactive Weather Map
Tropical Storm Tracking
New forecast layout! Learn more

10-Day Weather Forecast

Advertisements
Track Severe Weather on mobile